createdAt,value
2022-11-24T00:01:26.302Z,9.63
2022-11-24T00:04:01.849Z,9.44
2022-11-24T00:06:30.578Z,9.48
2022-11-24T00:08:58.622Z,9.52
2022-11-24T00:11:28.638Z,9.66
2022-11-24T00:13:56.157Z,9.39
2022-11-24T00:16:28.817Z,9.60
2022-11-24T00:18:58.670Z,9.64
2022-11-24T00:21:27.334Z,9.62
2022-11-24T00:23:54.939Z,9.67
2022-11-24T00:26:27.018Z,9.62
2022-11-24T00:28:57.957Z,9.53
2022-11-24T00:31:28.468Z,9.45
2022-11-24T00:33:58.285Z,9.46
2022-11-24T00:36:26.944Z,9.55
2022-11-24T00:38:59.404Z,9.49
2022-11-24T00:41:27.303Z,9.52
2022-11-24T00:43:54.791Z,9.58
2022-11-24T00:46:23.459Z,9.61
2022-11-24T00:48:50.814Z,9.58
2022-11-24T00:51:19.819Z,9.52
2022-11-24T00:53:46.612Z,9.56
2022-11-24T00:56:13.951Z,9.54
2022-11-24T00:58:41.437Z,9.55
2022-11-24T01:01:14.283Z,9.57
2022-11-24T01:03:42.034Z,9.57
2022-11-24T01:06:12.051Z,9.53
2022-11-24T01:08:40.003Z,9.57
2022-11-24T01:11:18.598Z,9.56
2022-11-24T01:13:47.759Z,9.60
2022-11-24T01:16:22.872Z,9.56
2022-11-24T01:18:50.098Z,9.55
2022-11-24T01:21:17.666Z,9.54
2022-11-24T01:23:45.167Z,9.51
2022-11-24T01:26:16.559Z,9.57
2022-11-24T01:28:47.089Z,9.55
2022-11-24T01:31:15.794Z,9.62
2022-11-24T01:33:42.717Z,9.53
2022-11-24T01:36:09.560Z,9.66
2022-11-24T01:38:36.304Z,9.58
2022-11-24T01:41:12.211Z,9.66
2022-11-24T01:43:39.310Z,9.67
2022-11-24T01:46:31.532Z,9.59
2022-11-24T01:49:09.150Z,9.52
2022-11-24T01:52:00.229Z,9.51
2022-11-24T01:54:34.105Z,9.50
2022-11-24T01:57:24.069Z,9.33
2022-11-24T01:59:56.215Z,9.20
2022-11-24T02:02:25.021Z,9.03
2022-11-24T02:04:52.597Z,8.92
2022-11-24T02:07:19.770Z,8.80
2022-11-24T02:09:55.028Z,8.75
2022-11-24T02:12:24.401Z,8.62
2022-11-24T02:14:52.433Z,8.57
2022-11-24T02:17:19.300Z,8.50
2022-11-24T02:19:51.465Z,8.50
2022-11-24T02:23:10.600Z,8.50
2022-11-24T02:26:34.641Z,8.52
2022-11-24T02:29:02.433Z,8.57
2022-11-24T02:31:29.369Z,8.56
2022-11-24T02:33:56.816Z,8.59
2022-11-24T02:36:23.722Z,8.56
2022-11-24T02:38:50.700Z,8.57
2022-11-24T02:41:21.911Z,8.57
2022-11-24T02:44:01.861Z,8.52
2022-11-24T02:46:28.799Z,8.50
2022-11-24T02:48:55.858Z,8.52
2022-11-24T02:51:22.791Z,8.55
2022-11-24T02:53:49.759Z,8.59
2022-11-24T02:56:16.868Z,8.64
2022-11-24T02:58:43.696Z,8.62
2022-11-24T03:01:10.525Z,8.68
2022-11-24T03:03:37.844Z,8.71
2022-11-24T03:06:04.966Z,8.61
2022-11-24T03:08:31.894Z,8.57
2022-11-24T03:10:58.734Z,8.67
2022-11-24T03:13:25.732Z,8.53
2022-11-24T03:15:52.664Z,8.47
2022-11-24T03:18:19.580Z,8.42
2022-11-24T03:20:46.557Z,8.44
2022-11-24T03:23:13.483Z,8.49
2022-11-24T03:25:40.295Z,8.58
2022-11-24T03:28:07.278Z,8.65
2022-11-24T03:30:34.049Z,8.69
2022-11-24T03:33:00.918Z,8.84
2022-11-24T03:35:28.103Z,8.94
2022-11-24T03:37:54.918Z,8.99
2022-11-24T03:40:21.906Z,9.03
2022-11-24T03:42:48.755Z,9.00
2022-11-24T03:45:44.965Z,8.98
2022-11-24T03:48:02.965Z,9.01
2022-11-24T03:50:29.915Z,9.06
2022-11-24T03:52:56.761Z,9.06
2022-11-24T03:55:23.490Z,9.09
2022-11-24T03:57:50.393Z,9.13
2022-11-24T04:00:17.850Z,9.13
2022-11-24T04:02:44.784Z,9.09
2022-11-24T04:05:11.789Z,9.15
2022-11-24T04:07:38.794Z,9.19
2022-11-24T04:10:06.793Z,9.22
2022-11-24T04:12:33.864Z,9.20
2022-11-24T04:15:00.683Z,9.24
2022-11-24T04:17:28.658Z,9.25
2022-11-24T04:19:55.630Z,9.29
2022-11-24T04:22:22.546Z,9.28
2022-11-24T04:24:49.567Z,9.35
2022-11-24T04:27:16.585Z,9.46
2022-11-24T04:29:43.606Z,9.41
2022-11-24T04:32:10.417Z,9.46
2022-11-24T04:34:37.701Z,9.50
2022-11-24T04:37:04.675Z,9.58
2022-11-24T04:39:31.656Z,9.57
2022-11-24T04:41:58.567Z,9.63
2022-11-24T04:44:25.515Z,9.50
2022-11-24T04:46:52.602Z,9.28
2022-11-24T04:49:19.942Z,9.18
2022-11-24T04:51:47.152Z,9.47
2022-11-24T04:54:14.805Z,9.59
2022-11-24T04:56:42.571Z,9.75
2022-11-24T04:59:14.009Z,9.79
2022-11-24T05:01:45.418Z,9.96
2022-11-24T05:04:14.291Z,10.31
2022-11-24T05:06:41.337Z,10.09
2022-11-24T05:09:08.909Z,10.33
2022-11-24T05:11:35.802Z,10.19
2022-11-24T05:14:02.666Z,10.01
2022-11-24T05:16:29.562Z,9.61
2022-11-24T05:18:56.455Z,9.32
2022-11-24T05:21:23.381Z,9.06
2022-11-24T05:23:50.243Z,8.93
2022-11-24T05:26:17.296Z,8.97
2022-11-24T05:28:44.154Z,9.03
2022-11-24T05:31:11.223Z,8.97
2022-11-24T05:33:38.318Z,8.79
2022-11-24T05:36:07.034Z,8.90
2022-11-24T05:38:34.456Z,9.10
2022-11-24T05:41:02.963Z,9.28
2022-11-24T05:43:29.912Z,9.32
2022-11-24T05:46:01.046Z,9.28
2022-11-24T05:48:28.291Z,9.32
2022-11-24T05:50:57.098Z,9.15
2022-11-24T05:53:24.626Z,9.06
2022-11-24T05:55:51.505Z,9.00
2022-11-24T05:58:18.471Z,8.92
2022-11-24T06:00:45.371Z,8.84
2022-11-24T06:03:12.521Z,8.71
2022-11-24T06:05:39.711Z,8.71
2022-11-24T06:08:06.666Z,8.80
2022-11-24T06:10:33.591Z,8.93
2022-11-24T06:13:05.407Z,9.05
2022-11-24T06:15:33.115Z,9.16
2022-11-24T06:18:00.044Z,9.19
2022-11-24T06:20:32.307Z,9.09
2022-11-24T06:23:00.204Z,8.93
2022-11-24T06:25:27.873Z,8.96
2022-11-24T06:27:55.039Z,9.03
2022-11-24T06:30:21.936Z,8.92
2022-11-24T06:32:50.055Z,8.94
2022-11-24T06:35:17.531Z,9.01
2022-11-24T06:37:44.440Z,8.93
2022-11-24T06:40:11.486Z,9.03
2022-11-24T06:42:38.567Z,9.17
2022-11-24T06:45:09.027Z,9.29
2022-11-24T06:47:36.319Z,9.46
2022-11-24T06:50:03.294Z,9.54
2022-11-24T06:52:30.080Z,9.59
2022-11-24T06:54:57.048Z,9.49
2022-11-24T06:57:24.076Z,9.51
2022-11-24T06:59:51.276Z,9.52
2022-11-24T07:02:18.104Z,9.61
2022-11-24T07:04:45.019Z,9.71
2022-11-24T07:07:11.828Z,9.86
2022-11-24T07:09:38.830Z,9.99
2022-11-24T07:12:06.018Z,10.10
2022-11-24T07:14:33.314Z,10.14
2022-11-24T07:17:00.596Z,10.25
2022-11-24T07:19:27.547Z,10.00
2022-11-24T07:21:54.463Z,9.88
2022-11-24T07:24:21.443Z,9.92
2022-11-24T07:26:48.442Z,9.86
2022-11-24T07:29:15.321Z,9.78
2022-11-24T07:31:42.390Z,9.64
2022-11-24T07:34:09.545Z,9.58
2022-11-24T07:36:36.449Z,9.58
2022-11-24T07:39:05.974Z,9.58
2022-11-24T07:41:33.063Z,9.62
2022-11-24T07:44:00.082Z,9.72
2022-11-24T07:46:27.048Z,9.61
2022-11-24T07:48:53.941Z,9.68
2022-11-24T07:51:20.868Z,9.88
2022-11-24T07:53:47.769Z,9.77
2022-11-24T07:56:14.705Z,9.75
2022-11-24T07:58:41.718Z,9.72
2022-11-24T08:01:14.479Z,9.80
2022-11-24T08:03:42.619Z,9.79
2022-11-24T08:06:29.059Z,9.78
2022-11-24T08:08:58.075Z,9.69
2022-11-24T08:11:25.326Z,9.56
2022-11-24T08:13:52.464Z,9.63
2022-11-24T08:16:20.941Z,9.76
2022-11-24T08:18:52.732Z,9.93
2022-11-24T08:21:20.040Z,10.08
2022-11-24T08:23:47.340Z,10.18
2022-11-24T08:26:16.604Z,10.33
2022-11-24T08:28:44.646Z,10.43
2022-11-24T08:31:14.220Z,10.33
2022-11-24T08:33:41.881Z,10.48
2022-11-24T08:36:12.087Z,10.43
2022-11-24T08:38:39.655Z,10.32
2022-11-24T08:41:12.232Z,10.45
2022-11-24T08:43:39.339Z,10.26
2022-11-24T08:46:09.237Z,10.23
2022-11-24T08:48:36.240Z,10.30
2022-11-24T08:51:08.796Z,10.37
2022-11-24T08:53:35.550Z,10.45
2022-11-24T08:56:03.626Z,10.55
2022-11-24T08:58:30.830Z,10.46
2022-11-24T09:01:05.333Z,10.31
2022-11-24T09:03:32.264Z,10.12
2022-11-24T09:05:59.230Z,10.07
2022-11-24T09:08:26.100Z,9.79
2022-11-24T09:10:53.028Z,9.75
2022-11-24T09:13:19.960Z,9.70
2022-11-24T09:15:46.733Z,9.76
2022-11-24T09:18:13.719Z,9.67
2022-11-24T09:20:40.526Z,9.99
2022-11-24T09:23:07.437Z,9.96
2022-11-24T09:25:37.519Z,9.75
2022-11-24T09:28:04.483Z,9.77
2022-11-24T09:30:31.370Z,9.68
2022-11-24T09:32:58.499Z,9.68
2022-11-24T09:35:25.524Z,9.63
2022-11-24T09:37:52.462Z,9.69
2022-11-24T09:40:19.505Z,9.79
2022-11-24T09:43:13.606Z,9.93
2022-11-24T09:46:05.908Z,10.01
2022-11-24T09:48:46.614Z,10.14
2022-11-24T09:51:15.397Z,10.31
2022-11-24T09:54:06.213Z,9.96
2022-11-24T09:56:35.660Z,9.85
2022-11-24T09:59:07.525Z,9.67
2022-11-24T10:01:36.674Z,9.85
2022-11-24T10:04:06.593Z,10.03
2022-11-24T10:06:44.484Z,10.14
2022-11-24T10:09:32.934Z,10.03
2022-11-24T10:12:27.830Z,10.10
2022-11-24T10:15:33.004Z,10.29
2022-11-24T10:18:21.233Z,10.33
2022-11-24T10:21:23.097Z,10.28
2022-11-24T10:24:08.715Z,10.41
2022-11-24T10:26:39.370Z,10.60
2022-11-24T10:29:21.172Z,10.72
2022-11-24T10:31:53.884Z,10.75
2022-11-24T10:34:30.134Z,10.80
2022-11-24T10:37:12.321Z,10.92
2022-11-24T10:39:59.649Z,10.75
2022-11-24T10:42:28.845Z,10.55
2022-11-24T10:45:15.764Z,10.48
2022-11-24T10:47:44.366Z,10.67
2022-11-24T10:50:28.186Z,10.59
2022-11-24T10:53:04.555Z,10.77
2022-11-24T10:55:56.259Z,10.81
2022-11-24T10:58:37.655Z,10.86
2022-11-24T11:01:14.059Z,10.86
2022-11-24T11:04:01.264Z,10.91
2022-11-24T11:06:29.923Z,10.98
2022-11-24T11:09:09.086Z,11.14
2022-11-24T11:11:37.675Z,11.13
2022-11-24T11:14:07.385Z,11.19
2022-11-24T11:16:54.410Z,11.01
2022-11-24T11:19:49.101Z,10.84
2022-11-24T11:22:31.711Z,10.68
2022-11-24T11:25:20.874Z,10.82
2022-11-24T11:27:48.326Z,10.87
2022-11-24T11:36:11.609Z,10.86
2022-11-24T11:38:40.095Z,10.46
2022-11-24T11:41:18.282Z,10.28
2022-11-24T11:43:47.887Z,10.29
2022-11-24T11:46:15.757Z,10.55
2022-11-24T11:48:45.413Z,10.56
2022-11-24T11:51:27.547Z,10.51
2022-11-24T11:54:16.137Z,10.47
2022-11-24T11:56:45.875Z,10.21
2022-11-24T11:59:24.597Z,10.35
2022-11-24T12:02:13.116Z,10.52
2022-11-24T12:05:05.505Z,10.22
2022-11-24T12:07:38.729Z,10.30
2022-11-24T12:10:20.428Z,10.64
2022-11-24T12:13:03.813Z,10.74
2022-11-24T12:15:52.829Z,10.62
2022-11-24T12:18:56.680Z,10.57
2022-11-24T12:21:26.207Z,10.44
2022-11-24T12:24:02.770Z,10.39
2022-11-24T12:26:58.566Z,10.32
2022-11-24T12:29:52.623Z,10.28
2022-11-24T12:32:29.939Z,10.06
2022-11-24T12:35:15.845Z,10.15
2022-11-24T12:38:27.087Z,10.18
2022-11-24T12:44:04.074Z,10.19
2022-11-24T12:46:50.009Z,10.32
2022-11-24T12:49:32.943Z,10.49
2022-11-24T12:52:32.134Z,10.61
2022-11-24T12:55:00.108Z,10.35
2022-11-24T12:58:11.717Z,10.30
2022-11-24T13:00:44.161Z,10.36
2022-11-24T13:03:22.557Z,10.14
2022-11-24T13:06:30.043Z,10.06
2022-11-24T13:08:57.010Z,10.01
2022-11-24T13:11:23.978Z,10.01
2022-11-24T13:14:06.066Z,9.95
2022-11-24T13:16:37.023Z,9.94
2022-11-24T13:19:17.343Z,10.12
2022-11-24T13:21:44.168Z,10.28
2022-11-24T13:24:17.571Z,10.20
2022-11-24T13:26:47.825Z,10.21
2022-11-24T13:29:38.797Z,10.41
2022-11-24T13:32:05.544Z,10.47
2022-11-24T13:34:41.493Z,10.49
2022-11-24T13:37:29.044Z,10.48
2022-11-24T13:40:14.433Z,10.59
2022-11-24T13:43:10.731Z,10.56
2022-11-24T13:45:41.028Z,10.67
2022-11-24T13:48:20.790Z,10.74
2022-11-24T13:50:51.552Z,10.64
2022-11-24T13:53:30.773Z,10.69
2022-11-24T13:56:21.760Z,10.63
2022-11-24T13:58:52.454Z,10.47
2022-11-24T14:01:20.587Z,10.44
2022-11-24T14:06:53.507Z,10.60
2022-11-24T14:09:34.062Z,10.37
2022-11-24T14:12:12.200Z,10.27
2022-11-24T14:14:39.449Z,10.39
2022-11-24T14:17:21.836Z,10.50
2022-11-24T14:19:51.530Z,10.43
2022-11-24T14:22:23.178Z,10.48
2022-11-24T14:24:58.701Z,10.57
2022-11-24T14:27:36.067Z,10.72
2022-11-24T14:30:17.761Z,10.78
2022-11-24T14:33:13.830Z,10.75
2022-11-24T14:35:52.428Z,10.70
2022-11-24T14:38:19.371Z,10.48
2022-11-24T14:40:52.622Z,10.54
2022-11-24T14:43:32.810Z,10.59
2022-11-24T14:46:10.079Z,10.62
2022-11-24T14:48:47.833Z,10.48
2022-11-24T14:51:17.201Z,10.50
2022-11-24T14:53:53.370Z,10.46
2022-11-24T14:56:27.328Z,10.54
2022-11-24T14:58:56.275Z,10.56
2022-11-24T15:01:33.047Z,10.51
2022-11-24T15:07:25.315Z,10.37
2022-11-24T15:09:57.344Z,10.34
2022-11-24T15:12:31.980Z,10.35
2022-11-24T15:15:05.275Z,10.37
2022-11-24T15:17:32.955Z,10.33
2022-11-24T15:20:10.658Z,10.27
2022-11-24T15:22:37.716Z,10.34
2022-11-24T15:25:28.366Z,10.07
2022-11-24T15:27:58.074Z,9.92
2022-11-24T15:30:25.130Z,9.99
2022-11-24T15:32:53.854Z,9.94
2022-11-24T15:35:21.507Z,9.89
2022-11-24T15:37:48.815Z,9.84
2022-11-24T15:40:15.921Z,9.88
2022-11-24T15:42:46.707Z,9.83
2022-11-24T15:45:13.803Z,9.71
2022-11-24T15:47:40.772Z,9.76
2022-11-24T15:50:08.277Z,9.55
2022-11-24T15:52:35.410Z,9.12
2022-11-24T15:55:05.534Z,9.01
2022-11-24T15:57:35.517Z,8.87
2022-11-24T16:00:02.759Z,8.84
2022-11-24T16:02:29.877Z,8.93
2022-11-24T16:04:56.748Z,8.96
2022-11-24T16:07:23.757Z,8.90
2022-11-24T16:09:50.775Z,8.97
2022-11-24T16:12:17.677Z,8.76
2022-11-24T16:14:44.544Z,8.92
2022-11-24T16:17:11.480Z,8.88
2022-11-24T16:19:41.761Z,8.84
2022-11-24T16:22:09.111Z,8.88
2022-11-24T16:24:36.389Z,9.03
2022-11-24T16:27:03.470Z,9.04
2022-11-24T16:29:32.899Z,8.90
2022-11-24T16:32:03.978Z,8.84
2022-11-24T16:34:30.932Z,8.82
2022-11-24T16:36:57.773Z,8.89
2022-11-24T16:39:24.528Z,9.08
2022-11-24T16:41:51.473Z,9.20
2022-11-24T16:44:18.297Z,9.11
2022-11-24T16:46:45.140Z,9.06
2022-11-24T16:49:12.114Z,9.15
2022-11-24T16:51:38.916Z,9.16
2022-11-24T16:54:05.864Z,9.19
2022-11-24T16:56:32.747Z,9.18
2022-11-24T16:58:59.565Z,9.10
2022-11-24T17:01:26.445Z,9.27
2022-11-24T17:03:54.068Z,9.45
2022-11-24T17:06:21.186Z,9.57
2022-11-24T17:08:48.396Z,9.72
2022-11-24T17:11:23.518Z,9.76
2022-11-24T17:13:54.354Z,9.75
2022-11-24T17:16:23.283Z,9.47
2022-11-24T17:18:50.881Z,9.26
2022-11-24T17:21:23.643Z,9.35
2022-11-24T17:23:55.476Z,9.43
2022-11-24T17:26:22.459Z,9.54
2022-11-24T17:28:49.412Z,9.65
2022-11-24T17:31:23.899Z,9.60
2022-11-24T17:33:53.026Z,9.35
2022-11-24T17:36:20.379Z,9.51
2022-11-24T17:38:47.703Z,9.46
2022-11-24T17:41:14.549Z,9.52
2022-11-24T17:43:41.796Z,9.48
2022-11-24T17:46:10.575Z,9.54
2022-11-24T17:48:38.553Z,9.56
2022-11-24T17:51:13.475Z,9.60
2022-11-24T17:53:42.284Z,9.43
2022-11-24T17:56:12.993Z,9.32
2022-11-24T17:58:42.910Z,9.05
2022-11-24T18:01:11.499Z,8.82
2022-11-24T18:03:42.307Z,8.54
2022-11-24T18:06:11.787Z,8.44
2022-11-24T18:08:41.275Z,8.65
2022-11-24T18:11:17.396Z,8.86
2022-11-24T18:16:33.440Z,9.02
2022-11-24T18:19:10.669Z,9.04
2022-11-24T18:21:42.529Z,9.00
2022-11-24T18:24:10.913Z,8.63
2022-11-24T18:26:40.734Z,8.79
2022-11-24T18:29:08.092Z,8.89
2022-11-24T18:31:35.824Z,8.95
2022-11-24T18:34:04.983Z,8.97
2022-11-24T18:36:33.112Z,9.15
2022-11-24T18:39:09.634Z,9.31
2022-11-24T18:41:36.874Z,9.29
2022-11-24T18:44:04.628Z,9.19
2022-11-24T18:46:31.692Z,9.20
2022-11-24T18:48:59.646Z,9.27
2022-11-24T18:51:26.468Z,9.23
2022-11-24T18:53:54.040Z,9.25
2022-11-24T18:56:21.132Z,9.28
2022-11-24T18:58:47.933Z,9.34
2022-11-24T19:01:17.309Z,9.35
2022-11-24T19:03:52.401Z,9.38
2022-11-24T19:06:22.579Z,9.43
2022-11-24T19:08:52.518Z,9.51
2022-11-24T19:11:27.653Z,9.56
2022-11-24T19:13:55.300Z,9.60
2022-11-24T19:16:23.139Z,8.85
2022-11-24T19:18:54.377Z,8.20
2022-11-24T19:21:22.106Z,7.85
2022-11-24T19:23:51.817Z,7.59
2022-11-24T19:26:22.135Z,7.67
2022-11-24T19:28:52.406Z,7.76
2022-11-24T19:31:21.270Z,7.79
2022-11-24T19:33:48.268Z,7.97
2022-11-24T19:36:18.314Z,8.11
2022-11-24T19:38:53.863Z,8.31
2022-11-24T19:41:22.422Z,8.34
2022-11-24T19:43:49.789Z,8.43
2022-11-24T19:46:18.646Z,8.63
2022-11-24T19:48:51.079Z,8.82
2022-11-24T19:51:20.759Z,8.76
2022-11-24T19:53:48.506Z,8.80
2022-11-24T19:56:23.173Z,8.84
2022-11-24T19:58:51.284Z,8.95
2022-11-24T20:01:29.236Z,9.10
2022-11-24T20:03:59.198Z,9.02
2022-11-24T20:06:28.968Z,9.04
2022-11-24T20:08:58.025Z,8.97
2022-11-24T20:11:25.063Z,9.01
2022-11-24T20:13:51.927Z,8.65
2022-11-24T20:16:24.300Z,8.18
2022-11-24T20:18:51.150Z,8.09
2022-11-24T20:21:22.683Z,7.89
2022-11-24T20:24:01.449Z,7.94
2022-11-24T20:26:38.297Z,7.87
2022-11-24T20:29:05.883Z,7.85
2022-11-24T20:31:35.947Z,7.84
2022-11-24T20:34:04.842Z,8.01
2022-11-24T20:36:33.582Z,8.11
2022-11-24T20:39:02.450Z,8.15
2022-11-24T20:41:32.510Z,8.13
2022-11-24T20:44:02.025Z,8.01
2022-11-24T20:46:32.410Z,7.76
2022-11-24T20:49:00.175Z,7.53
2022-11-24T20:51:32.146Z,7.28
2022-11-24T20:54:01.342Z,7.18
2022-11-24T20:56:31.012Z,7.14
2022-11-24T20:58:58.520Z,6.99
2022-11-24T21:01:36.844Z,6.96
2022-11-24T21:04:06.164Z,6.94
2022-11-24T21:06:33.433Z,6.95
2022-11-24T21:09:04.033Z,7.12
2022-11-24T21:11:32.231Z,7.35
2022-11-24T21:13:59.705Z,7.68
2022-11-24T21:16:28.299Z,7.93
2022-11-24T21:18:58.784Z,8.02
2022-11-24T21:21:28.220Z,8.33
2022-11-24T21:23:55.079Z,8.35
2022-11-24T21:26:22.113Z,8.41
2022-11-24T21:28:49.009Z,8.50
2022-11-24T21:31:18.707Z,8.33
2022-11-24T21:33:51.214Z,8.01
2022-11-24T21:36:26.236Z,7.68
2022-11-24T21:38:55.660Z,7.43
2022-11-24T21:41:24.122Z,7.26
2022-11-24T21:43:52.743Z,7.19
2022-11-24T21:46:19.764Z,7.05
2022-11-24T21:48:46.838Z,6.96
2022-11-24T21:51:16.384Z,6.88
2022-11-24T21:53:46.978Z,6.85
2022-11-24T21:56:19.133Z,6.83
2022-11-24T21:58:56.930Z,6.86
2022-11-24T22:01:28.125Z,6.92
2022-11-24T22:03:56.368Z,6.86
2022-11-24T22:06:23.922Z,6.84
2022-11-24T22:08:50.900Z,6.80
2022-11-24T22:11:21.279Z,6.77
2022-11-24T22:13:49.128Z,6.76
2022-11-24T22:16:21.191Z,6.75
2022-11-24T22:18:49.622Z,6.74
2022-11-24T22:21:19.128Z,6.83
2022-11-24T22:23:45.950Z,6.93
2022-11-24T22:26:18.222Z,7.03
2022-11-24T22:28:45.658Z,6.96
2022-11-24T22:31:24.317Z,6.97
2022-11-24T22:33:52.069Z,7.02
2022-11-24T22:36:20.620Z,7.09
2022-11-24T22:38:48.291Z,7.00
2022-11-24T22:41:19.152Z,6.87
2022-11-24T22:43:46.823Z,6.83
2022-11-24T22:46:16.565Z,6.82
2022-11-24T22:48:45.203Z,6.89
2022-11-24T22:51:18.798Z,7.07
2022-11-24T22:53:50.497Z,6.96
2022-11-24T22:56:17.603Z,6.86
2022-11-24T22:58:44.579Z,6.60
2022-11-24T23:01:20.174Z,6.45
2022-11-24T23:03:47.616Z,6.61
2022-11-24T23:06:19.847Z,6.74
2022-11-24T23:08:47.394Z,6.89
2022-11-24T23:11:20.088Z,6.98
2022-11-24T23:14:03.423Z,7.10
2022-11-24T23:16:30.522Z,7.20
2022-11-24T23:18:57.840Z,7.29
2022-11-24T23:21:27.952Z,7.38
2022-11-24T23:23:55.920Z,7.36
2022-11-24T23:26:31.392Z,7.48
2022-11-24T23:28:58.542Z,7.52
2022-11-24T23:31:27.576Z,7.63
2022-11-24T23:33:59.407Z,7.63
2022-11-24T23:36:28.293Z,7.73
2022-11-24T23:38:55.251Z,7.76
2022-11-24T23:41:24.729Z,7.61
2022-11-24T23:43:52.259Z,7.66
2022-11-24T23:46:21.887Z,7.51
2022-11-24T23:48:50.143Z,7.17
2022-11-24T23:51:22.729Z,6.90
2022-11-24T23:53:50.348Z,6.57
2022-11-24T23:56:20.191Z,6.33
2022-11-24T23:58:47.514Z,6.20
